Columbia — WYR2092 — position and weather

sailwx.info

Track history (hours):
 
Tides and Currents Weather Stations Pressure Air Temp Water Temp Dewpoint Dewpoint Depression Visibility Wind Speed Wind Dir Waves Ship Positions

Columbia

More information available from US FCC via Universal Licensing System and Coast Guard Vessel Documentation Center.

Last reported at 2014-Jul-26 22:11 UTC. Time now 2014-Jul-28 12:26 UTC.
Position N 52°14' W 128°15'.

Type: Ship. MMSI: 367144000.

Date/timePositionNaut miles runAvg speedWind from/ knotsBaromVisibWave heightAir tempDewpointWater temp
2014-Jul-26 22:11N 52°14' W 128°15'7 9.5
2014-Jul-26 21:29N 52°10' W 128°08'1011.1
2014-Jul-26 20:33N 52°02' W 127°56'3517.1
2014-Jul-26 18:31N 51°28' W 127°51'1916.8
2014-Jul-26 17:23N 51°09' W 127°49'1417.2
2014-Jul-26 16:33N 50°59' W 127°33'1717.4
2014-Jul-26 15:33N 50°49' W 127°10'1817.6
2014-Jul-26 14:31N 50°38' W 126°47'5616.6
2014-Jul-26 11:09N 50°18' W 125°25'1116.4
2014-Jul-26 10:28N 50°08' W 125°21'1011.4
2014-Jul-26 09:34N 49°59' W 125°12'1717.3
2014-Jul-26 08:34N 49°47' W 124°52'1717.1
2014-Jul-26 07:33N 49°35' W 124°33'1716.8
2014-Jul-26 06:34N 49°25' W 124°13'1717.3
2014-Jul-26 05:34N 49°20' W 123°48'1717.0
2014-Jul-26 04:34N 49°09' W 123°28'1716.5
2014-Jul-26 03:33N 48°57' W 123°10'1717.0
2014-Jul-26 02:33N 48°47' W 122°50'1212.3
2014-Jul-26 01:34N 48°41' W 122°33'3 2.0
2014-Jul-26 00:16N 48°43' W 122°31'0 0.0
2014-Jul-25 23:28N 48°43' W 122°31'0 0.0
2014-Jul-25 22:28N 48°43' W 122°31'0 0.0
2014-Jul-25 21:28N 48°43' W 122°31'0 0.0
2014-Jul-25 20:28N 48°43' W 122°31'0 0.0
2014-Jul-25 19:31N 48°43' W 122°31'0 0.0
2014-Jul-25 18:16N 48°43' W 122°31'0 0.0
2014-Jul-25 17:28N 48°43' W 122°31'0 0.0
2014-Jul-25 16:28N 48°43' W 122°31'0 0.0
2014-Jul-25 15:31N 48°43' W 122°31'0 0.1
2014-Jul-25 14:34N 48°43' W 122°31'9 8.8
2014-Jul-25 13:33N 48°41' W 122°43'1717.4
2014-Jul-25 12:33N 48°52' W 123°04'1818.0
2014-Jul-25 11:34N 49°04' W 123°24'1616.0
2014-Jul-25 10:33N 49°16' W 123°40'1616.0
2014-Jul-25 09:34N 49°22' W 124°03'1615.8
2014-Jul-25 08:33N 49°29' W 124°24'1716.6
2014-Jul-25 07:33N 49°41' W 124°43'1717.1
2014-Jul-25 06:33N 49°53' W 125°01'1312.9
2014-Jul-25 05:31N 50°03' W 125°14'5313.3
2014-Jul-25 01:33N 50°30' W 126°26'1211.3
2014-Jul-25 00:31N 50°35' W 126°42'1616.2
2014-Jul-24 23:33N 50°45' W 127°01'1615.8
2014-Jul-24 22:34N 50°54' W 127°22'1515.3
2014-Jul-24 21:34N 51°04' W 127°40'1615.7
2014-Jul-24 20:33N 51°17' W 127°55'1514.7
2014-Jul-24 19:33N 51°31' W 127°52'3216.1
2014-Jul-24 17:33N 52°03' W 127°56'10 9.9
2014-Jul-24 16:33N 52°10' W 128°08'1210.5
2014-Jul-24 15:26N 52°16' W 128°24'13415.1
2014-Jul-24 06:33N 54°09' W 130°24'1716.7
2014-Jul-24 05:33N 54°23' W 130°38'1816.2
2014-Jul-24 04:26N 54°40' W 130°48'  
2014-Jul-20 10:33N 54°38' W 130°44'1514.9
2014-Jul-20 09:33N 54°23' W 130°36'16014.5
2014-Jul-19 22:31N 52°10' W 128°08'1210.7
2014-Jul-19 21:25N 52°01' W 127°56'3217.5
2014-Jul-19 19:34N 51°29' W 127°51'1414.1
2014-Jul-19 18:33N 51°15' W 127°53'1515.4
2014-Jul-19 17:34N 51°02' W 127°38'1716.6
2014-Jul-19 16:33N 50°52' W 127°17'1817.0
2014-Jul-19 15:31N 50°42' W 126°54'6515.5
2014-Jul-19 11:21N 50°14' W 125°23'1516.8
2014-Jul-19 10:27N 50°00' W 125°13'1415.7
2014-Jul-19 09:33N 49°50' W 124°57'1515.4
2014-Jul-19 08:33N 49°39' W 124°40'1515.3
2014-Jul-19 07:34N 49°29' W 124°24'1514.8
2014-Jul-19 06:33N 49°23' W 124°03'1414.5
2014-Jul-19 05:34N 49°17' W 123°42'1515.2
2014-Jul-19 04:34N 49°07' W 123°25'1514.8
2014-Jul-19 03:33N 48°57' W 123°09'1717.0
2014-Jul-19 02:33N 48°46' W 122°49'1111.4
2014-Jul-19 01:33N 48°42' W 122°33'2 2.3
2014-Jul-19 00:33N 48°43' W 122°31'0 0.0
2014-Jul-18 23:18N 48°43' W 122°31'0 0.0
2014-Jul-18 22:30N 48°43' W 122°31'0 0.0
2014-Jul-18 21:24N 48°43' W 122°31'0 0.0
2014-Jul-18 20:30N 48°43' W 122°31'0 0.0
2014-Jul-18 19:12N 48°43' W 122°31'0 0.0
2014-Jul-18 18:12N 48°43' W 122°31'0 0.0
2014-Jul-18 17:30N 48°43' W 122°31'0 0.0
2014-Jul-18 16:06N 48°43' W 122°31'0 0.0
2014-Jul-18 15:30N 48°43' W 122°31'0 0.1
2014-Jul-18 14:33N 48°43' W 122°31'9 9.1
2014-Jul-18 13:34N 48°42' W 122°44'1413.6
2014-Jul-18 12:33N 48°50' W 123°00'1212.1
2014-Jul-18 11:33N 48°58' W 123°15'1212.3
2014-Jul-18 10:34N 49°06' W 123°28'1212.0
2014-Jul-18 09:33N 49°15' W 123°40'1312.8
2014-Jul-18 08:33N 49°22' W 123°57'1413.6
2014-Jul-18 07:33N 49°26' W 124°17'1414.1
2014-Jul-18 06:33N 49°35' W 124°34'1413.6
2014-Jul-18 05:33N 49°45' W 124°48'1413.6
2014-Jul-18 04:33N 49°54' W 125°04'1312.6
2014-Jul-18 03:33N 50°04' W 125°15'4117.3
2014-Jul-18 01:10N 50°28' W 126°08'1219.1
2014-Jul-18 00:32N 50°30' W 126°27'2017.7
2014-Jul-17 23:25N 50°41' W 126°53'1618.7
2014-Jul-17 22:33N 50°50' W 127°13'7414.8
2014-Jul-17 17:33N 51°59' W 127°56'1211.7
2014-Jul-17 16:30N 52°09' W 128°08'8 8.2
2014-Jul-17 15:32N 52°15' W 128°17'13815.2
2014-Jul-17 06:26N 54°10' W 130°26'1516.9
2014-Jul-17 05:33N 54°23' W 130°37'  
Track history (hours):
 
Tides and Currents Weather Stations Pressure Air Temp Water Temp Dewpoint Dewpoint Depression Visibility Wind Speed Wind Dir Waves Ship Positions

Columbia

More information available from US FCC via Universal Licensing System and Coast Guard Vessel Documentation Center.

Last reported at 2014-Jul-26 22:11 UTC. Time now 2014-Jul-28 12:26 UTC.
Position N 52°14' W 128°15'.

Type: Ship. MMSI: 367144000.

Date/timePositionNaut miles runAvg speedWind from/ knotsBaromVisibWave heightAir tempDewpointWater temp
2014-Jul-26 22:11N 52°14' W 128°15'7 9.5
2014-Jul-26 21:29N 52°10' W 128°08'1011.1
2014-Jul-26 20:33N 52°02' W 127°56'3517.1
2014-Jul-26 18:31N 51°28' W 127°51'1916.8
2014-Jul-26 17:23N 51°09' W 127°49'1417.2
2014-Jul-26 16:33N 50°59' W 127°33'1717.4
2014-Jul-26 15:33N 50°49' W 127°10'1817.6
2014-Jul-26 14:31N 50°38' W 126°47'5616.6
2014-Jul-26 11:09N 50°18' W 125°25'1116.4
2014-Jul-26 10:28N 50°08' W 125°21'1011.4
2014-Jul-26 09:34N 49°59' W 125°12'1717.3
2014-Jul-26 08:34N 49°47' W 124°52'1717.1
2014-Jul-26 07:33N 49°35' W 124°33'1716.8
2014-Jul-26 06:34N 49°25' W 124°13'1717.3
2014-Jul-26 05:34N 49°20' W 123°48'1717.0
2014-Jul-26 04:34N 49°09' W 123°28'1716.5
2014-Jul-26 03:33N 48°57' W 123°10'1717.0
2014-Jul-26 02:33N 48°47' W 122°50'1212.3
2014-Jul-26 01:34N 48°41' W 122°33'3 2.0
2014-Jul-26 00:16N 48°43' W 122°31'0 0.0
2014-Jul-25 23:28N 48°43' W 122°31'0 0.0
2014-Jul-25 22:28N 48°43' W 122°31'0 0.0
2014-Jul-25 21:28N 48°43' W 122°31'0 0.0
2014-Jul-25 20:28N 48°43' W 122°31'0 0.0
2014-Jul-25 19:31N 48°43' W 122°31'0 0.0
2014-Jul-25 18:16N 48°43' W 122°31'0 0.0
2014-Jul-25 17:28N 48°43' W 122°31'0 0.0
2014-Jul-25 16:28N 48°43' W 122°31'0 0.0
2014-Jul-25 15:31N 48°43' W 122°31'0 0.1
2014-Jul-25 14:34N 48°43' W 122°31'9 8.8
2014-Jul-25 13:33N 48°41' W 122°43'1717.4
2014-Jul-25 12:33N 48°52' W 123°04'1818.0
2014-Jul-25 11:34N 49°04' W 123°24'1616.0
2014-Jul-25 10:33N 49°16' W 123°40'1616.0
2014-Jul-25 09:34N 49°22' W 124°03'1615.8
2014-Jul-25 08:33N 49°29' W 124°24'1716.6
2014-Jul-25 07:33N 49°41' W 124°43'1717.1
2014-Jul-25 06:33N 49°53' W 125°01'1312.9
2014-Jul-25 05:31N 50°03' W 125°14'5313.3
2014-Jul-25 01:33N 50°30' W 126°26'1211.3
2014-Jul-25 00:31N 50°35' W 126°42'1616.2
2014-Jul-24 23:33N 50°45' W 127°01'1615.8
2014-Jul-24 22:34N 50°54' W 127°22'1515.3
2014-Jul-24 21:34N 51°04' W 127°40'1615.7
2014-Jul-24 20:33N 51°17' W 127°55'1514.7
2014-Jul-24 19:33N 51°31' W 127°52'3216.1
2014-Jul-24 17:33N 52°03' W 127°56'10 9.9
2014-Jul-24 16:33N 52°10' W 128°08'1210.5
2014-Jul-24 15:26N 52°16' W 128°24'13415.1
2014-Jul-24 06:33N 54°09' W 130°24'1716.7
2014-Jul-24 05:33N 54°23' W 130°38'1816.2
2014-Jul-24 04:26N 54°40' W 130°48'  
2014-Jul-20 10:33N 54°38' W 130°44'1514.9
2014-Jul-20 09:33N 54°23' W 130°36'16014.5
2014-Jul-19 22:31N 52°10' W 128°08'1210.7
2014-Jul-19 21:25N 52°01' W 127°56'3217.5
2014-Jul-19 19:34N 51°29' W 127°51'1414.1
2014-Jul-19 18:33N 51°15' W 127°53'1515.4
2014-Jul-19 17:34N 51°02' W 127°38'1716.6
2014-Jul-19 16:33N 50°52' W 127°17'1817.0
2014-Jul-19 15:31N 50°42' W 126°54'6515.5
2014-Jul-19 11:21N 50°14' W 125°23'1516.8
2014-Jul-19 10:27N 50°00' W 125°13'1415.7
2014-Jul-19 09:33N 49°50' W 124°57'1515.4
2014-Jul-19 08:33N 49°39' W 124°40'1515.3
2014-Jul-19 07:34N 49°29' W 124°24'1514.8
2014-Jul-19 06:33N 49°23' W 124°03'1414.5
2014-Jul-19 05:34N 49°17' W 123°42'1515.2
2014-Jul-19 04:34N 49°07' W 123°25'1514.8
2014-Jul-19 03:33N 48°57' W 123°09'1717.0
2014-Jul-19 02:33N 48°46' W 122°49'1111.4
2014-Jul-19 01:33N 48°42' W 122°33'2 2.3
2014-Jul-19 00:33N 48°43' W 122°31'0 0.0
2014-Jul-18 23:18N 48°43' W 122°31'0 0.0
2014-Jul-18 22:30N 48°43' W 122°31'0 0.0
2014-Jul-18 21:24N 48°43' W 122°31'0 0.0
2014-Jul-18 20:30N 48°43' W 122°31'0 0.0
2014-Jul-18 19:12N 48°43' W 122°31'0 0.0
2014-Jul-18 18:12N 48°43' W 122°31'0 0.0
2014-Jul-18 17:30N 48°43' W 122°31'0 0.0
2014-Jul-18 16:06N 48°43' W 122°31'0 0.0
2014-Jul-18 15:30N 48°43' W 122°31'0 0.1
2014-Jul-18 14:33N 48°43' W 122°31'9 9.1
2014-Jul-18 13:34N 48°42' W 122°44'1413.6
2014-Jul-18 12:33N 48°50' W 123°00'1212.1
2014-Jul-18 11:33N 48°58' W 123°15'1212.3
2014-Jul-18 10:34N 49°06' W 123°28'1212.0
2014-Jul-18 09:33N 49°15' W 123°40'1312.8
2014-Jul-18 08:33N 49°22' W 123°57'1413.6
2014-Jul-18 07:33N 49°26' W 124°17'1414.1
2014-Jul-18 06:33N 49°35' W 124°34'1413.6
2014-Jul-18 05:33N 49°45' W 124°48'1413.6
2014-Jul-18 04:33N 49°54' W 125°04'1312.6
2014-Jul-18 03:33N 50°04' W 125°15'4117.3
2014-Jul-18 01:10N 50°28' W 126°08'1219.1
2014-Jul-18 00:32N 50°30' W 126°27'2017.7
2014-Jul-17 23:25N 50°41' W 126°53'1618.7
2014-Jul-17 22:33N 50°50' W 127°13'7414.8
2014-Jul-17 17:33N 51°59' W 127°56'1211.7
2014-Jul-17 16:30N 52°09' W 128°08'8 8.2
2014-Jul-17 15:32N 52°15' W 128°17'13815.2
2014-Jul-17 06:26N 54°10' W 130°26'1516.9
2014-Jul-17 05:33N 54°23' W 130°37'  

Dump ship's entire track history